createdAt,value
2022-08-26T00:02:54.341Z,98180.94
2022-08-26T00:07:57.680Z,98177.97
2022-08-26T00:12:59.548Z,98176.84
2022-08-26T00:18:01.372Z,98166.50
2022-08-26T00:23:03.902Z,98163.88
2022-08-26T00:33:09.493Z,98157.47
2022-08-26T00:38:11.534Z,98153.44
2022-08-26T00:43:14.276Z,98153.94
2022-08-26T00:48:21.189Z,98150.72
2022-08-26T00:53:26.405Z,98149.38
2022-08-26T00:58:34.117Z,98141.69
2022-08-26T01:03:38.547Z,98142.97
2022-08-26T01:08:41.676Z,98138.16
2022-08-26T01:13:43.984Z,98141.84
2022-08-26T01:18:47.030Z,98135.19
2022-08-26T01:23:51.810Z,98142.56
2022-08-26T01:29:03.151Z,98129.59
2022-08-26T01:34:18.491Z,98128.78
2022-08-26T01:39:21.801Z,98126.63
2022-08-26T01:44:27.203Z,98128.72
2022-08-26T01:49:29.936Z,98138.72
2022-08-26T01:54:34.438Z,98137.44
2022-08-26T01:59:36.451Z,98129.75
2022-08-26T02:04:48.338Z,98134.25
2022-08-26T02:09:52.149Z,98134.72
2022-08-26T02:14:57.637Z,98144.16
2022-08-26T02:20:01.699Z,98137.28
2022-08-26T02:25:18.840Z,98130.88
2022-08-26T02:30:26.093Z,98133.19
2022-08-26T02:35:32.466Z,98131.59
2022-08-26T02:40:41.196Z,98131.03
2022-08-26T02:45:43.779Z,98134.72
2022-08-26T02:50:47.117Z,98134.41
2022-08-26T02:55:49.625Z,98131.19
2022-08-26T03:00:53.021Z,98131.44
2022-08-26T03:05:55.921Z,98124.75
2022-08-26T03:10:57.890Z,98126.81
2022-08-26T03:16:02.488Z,98119.94
2022-08-26T03:21:10.936Z,98112.25
2022-08-26T03:26:14.805Z,98115.13
2022-08-26T03:31:16.950Z,98125.16
2022-08-26T03:36:19.537Z,98116.66
2022-08-26T03:41:22.009Z,98120.56
2022-08-26T03:46:24.002Z,98112.31
2022-08-26T03:51:29.390Z,98103.84
2022-08-26T03:56:33.854Z,98108.56
2022-08-26T04:01:37.316Z,98098.22
2022-08-26T04:06:44.988Z,98100.06
2022-08-26T04:11:50.572Z,98100.88
2022-08-26T04:16:55.354Z,98102.72
2022-08-26T04:21:57.955Z,98106.94
2022-08-26T04:26:59.937Z,98102.72
2022-08-26T04:32:03.524Z,98102.72
2022-08-26T04:37:06.539Z,98104.56
2022-08-26T04:42:19.891Z,98106.94
2022-08-26T04:47:49.034Z,98104.06
2022-08-26T04:52:51.866Z,98100.63
2022-08-26T04:57:53.893Z,98109.13
2022-08-26T05:02:56.122Z,98103.84
2022-08-26T05:07:59.525Z,98101.75
2022-08-26T05:13:03.605Z,98115.75
2022-08-26T05:18:15.285Z,98103.34
2022-08-26T05:23:18.800Z,98114.50
2022-08-26T05:28:22.801Z,98110.81
2022-08-26T05:33:25.313Z,98117.69
2022-08-26T05:38:30.342Z,98114.00
2022-08-26T05:43:35.230Z,98110.91
2022-08-26T05:48:37.676Z,98109.38
2022-08-26T05:53:43.820Z,98110.50
2022-08-26T05:58:46.940Z,98105.09
2022-08-26T06:03:56.307Z,98101.72
2022-08-26T06:09:01.189Z,98103.41
2022-08-26T06:14:05.772Z,98100.59
2022-08-26T06:19:11.566Z,98111.00
2022-08-26T06:24:33.338Z,98112.75
2022-08-26T06:29:37.585Z,98108.97
2022-08-26T06:34:40.630Z,98114.41
2022-08-26T06:39:43.464Z,98113.75
2022-08-26T06:44:45.376Z,98108.31
2022-08-26T06:49:47.464Z,98109.66
2022-08-26T06:54:50.829Z,98113.69
2022-08-26T06:59:53.149Z,98107.09
2022-08-26T07:04:56.908Z,98113.50
2022-08-26T07:09:59.941Z,98108.81
2022-08-26T07:15:02.342Z,98112.63
2022-08-26T07:20:08.590Z,98102.97
2022-08-26T07:25:11.749Z,98113.38
2022-08-26T07:30:15.226Z,98110.09
2022-08-26T07:35:23.876Z,98107.44
2022-08-26T07:40:26.127Z,98103.81
2022-08-26T07:45:29.480Z,98101.81
2022-08-26T07:50:49.333Z,98102.69
2022-08-26T07:55:53.194Z,98096.19
2022-08-26T08:00:56.094Z,98096.00
2022-08-26T08:05:58.419Z,98091.06
2022-08-26T08:11:00.875Z,98086.06
2022-08-26T08:16:05.535Z,98094.38
2022-08-26T08:21:23.772Z,98083.03
2022-08-26T08:26:27.261Z,98087.31
2022-08-26T08:31:56.193Z,98082.81
2022-08-26T08:36:56.311Z,98062.66
2022-08-26T08:42:11.507Z,98064.25
2022-08-26T08:47:59.084Z,98060.06
2022-08-26T08:53:17.957Z,98060.63
2022-08-26T08:58:25.300Z,98068.03
2022-08-26T09:04:06.219Z,98062.47
2022-08-26T09:09:14.255Z,98053.19
2022-08-26T09:14:17.884Z,98055.88
2022-08-26T09:19:23.605Z,98051.84
2022-08-26T09:24:29.038Z,98053.91
2022-08-26T09:29:41.736Z,98047.78
2022-08-26T09:35:06.183Z,98050.38
2022-08-26T09:40:16.136Z,98048.47
2022-08-26T09:45:28.313Z,98064.34
2022-08-26T09:51:01.902Z,98059.81
2022-08-26T09:56:37.019Z,98054.47
2022-08-26T10:01:42.838Z,98047.84
2022-08-26T10:07:34.774Z,98033.63
2022-08-26T10:12:47.821Z,98028.16
2022-08-26T10:17:58.228Z,98032.94
2022-08-26T10:23:17.415Z,98022.31
2022-08-26T10:28:41.871Z,98011.78
2022-08-26T10:33:47.345Z,98003.38
2022-08-26T10:38:51.142Z,97992.50
2022-08-26T10:43:59.438Z,97971.53
2022-08-26T10:49:10.442Z,97964.91
2022-08-26T10:54:28.911Z,97963.03
2022-08-26T10:59:49.043Z,97964.56
2022-08-26T11:05:03.856Z,97962.09
2022-08-26T11:10:16.966Z,97963.38
2022-08-26T11:15:24.475Z,97960.69
2022-08-26T11:20:47.316Z,97957.81
2022-08-26T11:26:05.353Z,97957.59
2022-08-26T11:31:19.637Z,97949.53
2022-08-26T11:36:38.514Z,97941.97
2022-08-26T11:41:44.810Z,97934.69
2022-08-26T11:47:15.157Z,97912.50
2022-08-26T11:52:22.627Z,97882.63
2022-08-26T11:57:24.760Z,97875.13
2022-08-26T12:02:28.125Z,97882.59
2022-08-26T12:07:31.075Z,97868.81
2022-08-26T12:12:37.711Z,97860.81
2022-08-26T12:17:40.683Z,97862.41
2022-08-26T12:22:48.275Z,97867.44
2022-08-26T12:27:53.710Z,97867.44
2022-08-26T12:33:22.657Z,97886.66
2022-08-26T12:38:28.477Z,97870.16
2022-08-26T12:43:57.105Z,97863.19
2022-08-26T12:49:03.768Z,97857.06
2022-08-26T12:54:07.424Z,97862.97
2022-08-26T12:59:17.771Z,97864.88
2022-08-26T13:04:44.220Z,97853.47
2022-08-26T13:09:46.460Z,97854.91
2022-08-26T13:14:52.429Z,97846.94
2022-08-26T13:19:54.837Z,97850.69
2022-08-26T13:24:57.568Z,97849.84
2022-08-26T13:30:01.884Z,97831.38
2022-08-26T13:35:11.948Z,97841.22
2022-08-26T13:40:14.774Z,97858.22
2022-08-26T13:45:17.221Z,97867.34
2022-08-26T13:50:19.214Z,97864.19
2022-08-26T13:55:21.222Z,97863.22
2022-08-26T14:00:23.398Z,97857.97
2022-08-26T14:05:25.997Z,97852.16
2022-08-26T14:10:28.563Z,97848.97
2022-08-26T14:15:36.318Z,97831.66
2022-08-26T14:20:39.506Z,97830.22
2022-08-26T14:25:42.141Z,97817.88
2022-08-26T14:30:47.838Z,97817.81
2022-08-26T14:35:49.974Z,97803.44
2022-08-26T14:40:52.468Z,97796.75
2022-08-26T14:45:54.482Z,97790.53
2022-08-26T14:50:56.557Z,97789.13
2022-08-26T14:55:59.024Z,97782.41
2022-08-26T15:01:00.986Z,97782.31
2022-08-26T15:06:06.957Z,97778.97
2022-08-26T15:11:09.081Z,97774.44
2022-08-26T15:16:11.899Z,97775.16
2022-08-26T15:21:14.186Z,97793.44
2022-08-26T15:26:17.705Z,97797.88
2022-08-26T15:31:25.952Z,97799.63
2022-08-26T15:36:29.049Z,97803.03
2022-08-26T15:41:34.708Z,97802.16
2022-08-26T15:46:38.552Z,97787.81
2022-08-26T15:51:45.659Z,97799.06
2022-08-26T15:56:51.820Z,97812.59
2022-08-26T16:01:53.976Z,97818.00
2022-08-26T16:06:57.887Z,97824.53
2022-08-26T16:11:59.934Z,97825.72
2022-08-26T16:17:07.295Z,97827.66
2022-08-26T16:22:09.285Z,97822.91
2022-08-26T16:27:11.319Z,97832.88
2022-08-26T16:32:14.855Z,97844.69
2022-08-26T16:37:17.084Z,97838.38
2022-08-26T16:42:19.077Z,97819.31
2022-08-26T16:47:21.616Z,97813.03
2022-08-26T16:52:24.873Z,97811.50
2022-08-26T16:57:32.772Z,97815.88
2022-08-26T17:02:35.007Z,97818.59
2022-08-26T17:07:38.152Z,97818.97
2022-08-26T17:12:40.868Z,97826.25
2022-08-26T17:17:43.249Z,97833.31
2022-08-26T17:22:48.480Z,97816.38
2022-08-26T17:27:51.755Z,97815.06
2022-08-26T17:32:54.405Z,97795.69
2022-08-26T17:37:56.604Z,97776.59
2022-08-26T17:42:59.458Z,97776.59
2022-08-26T17:48:01.801Z,97780.59
2022-08-26T17:53:04.854Z,97775.31
2022-08-26T17:58:07.196Z,97797.88
2022-08-26T18:03:12.430Z,97798.41
2022-08-26T18:08:14.731Z,97807.19
2022-08-26T18:13:18.158Z,97816.16
2022-08-26T18:18:20.305Z,97822.00
2022-08-26T18:23:22.393Z,97805.28
2022-08-26T18:28:24.419Z,97797.59
2022-08-26T18:33:26.290Z,97811.13
2022-08-26T18:38:28.453Z,97834.22
2022-08-26T18:43:30.467Z,97850.41
2022-08-26T18:48:32.466Z,97862.59
2022-08-26T18:53:35.588Z,97871.88
2022-08-26T18:58:37.449Z,97857.81
2022-08-26T19:03:39.401Z,97855.69
2022-08-26T19:08:44.754Z,97856.75
2022-08-26T19:13:47.237Z,97845.31
2022-08-26T19:18:50.525Z,97859.09
2022-08-26T19:23:58.238Z,97858.03
2022-08-26T19:29:01.195Z,97843.97
2022-08-26T19:34:05.446Z,97839.72
2022-08-26T19:39:08.327Z,97846.63
2022-08-26T19:44:34.825Z,97858.25
2022-08-26T19:49:37.703Z,97852.09
2022-08-26T19:54:41.239Z,97838.56
2022-08-26T19:59:43.572Z,97835.13
2022-08-26T20:04:46.158Z,97817.88
2022-08-26T20:09:49.186Z,97813.63
2022-08-26T20:14:51.090Z,97819.97
2022-08-26T20:20:32.606Z,97821.00
2022-08-26T20:25:34.527Z,97831.59
2022-08-26T20:30:36.379Z,97829.47
2022-08-26T20:35:38.176Z,97828.97
2022-08-26T20:40:42.477Z,97827.09
2022-08-26T20:45:44.649Z,97833.47
2022-08-26T20:50:46.676Z,97844.03
2022-08-26T20:55:51.579Z,97849.31
2022-08-26T21:00:53.486Z,97845.81
2022-08-26T21:05:55.485Z,97846.06
2022-08-26T21:10:57.309Z,97830.41
2022-08-26T21:15:59.346Z,97828.53
2022-08-26T21:21:09.118Z,97832.75
2022-08-26T21:26:13.438Z,97846.50
2022-08-26T21:31:22.571Z,97847.28
2022-08-26T21:36:25.062Z,97836.88
2022-08-26T21:41:27.596Z,97821.22
2022-08-26T21:46:31.241Z,97825.19
2022-08-26T21:51:36.013Z,97819.09
2022-08-26T21:56:42.061Z,97817.22
2022-08-26T22:01:43.882Z,97812.19
2022-08-26T22:06:49.597Z,97817.22
2022-08-26T22:11:52.698Z,97810.34
2022-08-26T22:16:57.012Z,97807.16
2022-08-26T22:21:59.518Z,97811.41
2022-08-26T22:27:01.551Z,97808.22
2022-08-26T22:32:03.987Z,97805.28
2022-08-26T22:37:05.941Z,97814.28
2022-08-26T22:42:07.890Z,97820.38
2022-08-26T22:47:09.897Z,97814.28
2022-08-26T22:52:12.050Z,97828.56
2022-08-26T22:57:13.831Z,97835.97
2022-08-26T23:02:15.767Z,97831.72
2022-08-26T23:07:18.217Z,97826.41
2022-08-26T23:12:20.057Z,97840.72
2022-08-26T23:17:22.238Z,97838.06
2022-08-26T23:22:25.224Z,97839.38
2022-08-26T23:27:28.221Z,97848.63
2022-08-26T23:32:30.297Z,97850.16
2022-08-26T23:37:35.868Z,97858.06
2022-08-26T23:42:38.448Z,97866.50
2022-08-26T23:47:41.335Z,97864.91
2022-08-26T23:53:02.041Z,97868.38
2022-08-26T23:58:05.457Z,97861.22
